Hlavní strana
METAR-TAF:

METAR-TAF

Letiště :

Letiště Vídeň

Vídeň, Rakousko

zeměpisná šířka: 48-07N, zeměpisná délka: 016-34E, výška: 183 m

Aktuální stav počasí

Zpráva byla vytvořena před 24 minutami, v 08:20 UTC
vítr z různých směrů 2 kt
Teplota 22°C
Vlhkost vzduchu 65%
Tlak 1022 hPa
Viditelnost 10 km a více
Žádná oblačnost pod 1500 m, nevyskytují se cumulonimby.

METAR: LOWW 200820Z VRB02KT CAVOK 22/15 Q1022 NOSIG

Čas: 10:44 (08:44 UTC)

Předpověď počasí

Zpráva byla vytvořena před 29 minutami, v 08:15 UTC
Předpověď platná od 20 v 09 UTC do 21 v 15 UTC
vítr z různých směrů 2 kt
Viditelnost 10 km a více
Žádná oblačnost pod 1500 m, nevyskytují se cumulonimby.
Změna
od 20 v 11 UTC do 20 v 13 UTC
Jihovýchodní vítr 7 kt
Změna
od 21 v 09 UTC do 21 v 12 UTC
Jihojihovýchodní vítr 15 kt

TAF: LOWW 200815Z 2009/2115 VRB02KT CAVOK TX29/2111Z TN16/2102Z BECMG 2011/2013 14007KT BECMG 2109/2112 15015KT

Stav a předpovědi počasí z více než 4 000 letišť (zprávy METAR a TAF).

Červené a žluté tečky na mapě představují dostupné meteorologické stanice.

Když kurzor umístíte na tečku, zobrazí se název stanice.

Pak kliknutím zobrazíte stav a předpověď počasí.

Chcete-li změnit mapu, kliknutím na zelené tlačítko se znaménkem +mapu přiblížíte, kliknutím na zelené tlačítko se znaménkem – mapu oddálíte a kliknutím na zelené šipky přejdete na sousední mapy.


METAR-TAF: